Time;durP1;ratioP1;P1;durP2;ratioP2;P2;SDS_P1;SDS_P2;PMS_P1;PMS_P2;Temp;Humidity;BMP_temperature;BMP_pressure;BME280_temperature;BME280_humidity;BME280_pressure;Samples;Min_cycle;Max_cycle;Signal;HPM_P1;HPM_P2
2022/05/04 00:00:02;;;;;;;14.63;4.57;;;;;;;10.81;47.82;102140.91;5174140;28;20424;-50
2022/05/04 00:02:35;;;;;;;10.23;3.78;;;;;;;10.83;47.95;102144.25;5171439;28;20435;-51
2022/05/04 00:05:09;;;;;;;11.50;4.20;;;;;;;10.82;47.71;102137.28;5164265;28;20906;-48
2022/05/04 00:07:41;;;;;;;9.30;4.38;;;;;;;10.81;47.93;102130.34;5171571;28;20440;-49
2022/05/04 00:10:14;;;;;;;12.75;4.72;;;;;;;10.73;47.81;102127.44;5167929;28;20488;-43
2022/05/04 00:12:48;;;;;;;11.27;4.45;;;;;;;10.80;47.87;102144.50;5166372;28;20408;-49
2022/05/04 00:15:21;;;;;;;13.25;4.50;;;;;;;10.77;47.86;102136.81;5174240;28;20431;-46
2022/05/04 00:17:53;;;;;;;10.00;4.38;;;;;;;10.77;47.95;102142.09;5171731;28;20432;-46
2022/05/04 00:20:25;;;;;;;10.02;3.85;;;;;;;10.67;48.01;102127.91;5174831;28;20906;-48
2022/05/04 00:22:58;;;;;;;8.18;4.30;;;;;;;10.69;48.10;102136.56;5172220;28;20549;-50
2022/05/04 00:25:30;;;;;;;13.25;5.15;;;;;;;10.75;48.12;102138.75;5172674;28;20423;-50
2022/05/04 00:28:04;;;;;;;15.98;4.95;;;;;;;10.72;48.19;102147.75;5169097;28;20502;-47
2022/05/04 00:30:37;;;;;;;9.40;5.05;;;;;;;10.66;48.12;102131.53;5166261;28;20883;-49
2022/05/04 00:33:09;;;;;;;12.68;4.35;;;;;;;10.69;48.36;102141.84;5163309;28;20401;-49
2022/05/04 00:35:42;;;;;;;13.25;5.00;;;;;;;10.67;48.25;102138.50;5168737;28;21594;-50
2022/05/04 00:38:14;;;;;;;14.15;4.53;;;;;;;10.65;48.40;102140.41;5170619;28;20741;-48
2022/05/04 00:40:47;;;;;;;13.70;4.75;;;;;;;10.64;48.32;102133.44;5169896;28;20878;-49
2022/05/04 00:43:25;;;;;;;9.18;4.50;;;;;;;10.61;48.34;102135.34;5175032;28;20492;-48
2022/05/04 00:45:58;;;;;;;9.77;4.97;;;;;;;10.56;48.41;102132.25;5173788;28;20453;-50
2022/05/04 00:48:30;;;;;;;9.60;4.53;;;;;;;10.51;48.36;102129.09;5170340;28;20463;-49
2022/05/04 00:51:03;;;;;;;12.07;4.70;;;;;;;10.53;48.47;102135.13;5171360;28;20450;-48
2022/05/04 00:53:35;;;;;;;8.23;4.55;;;;;;;10.45;48.77;102129.56;5171578;28;20425;-48
2022/05/04 00:56:09;;;;;;;10.48;5.10;;;;;;;10.46;48.82;102135.69;5164646;28;20520;-49
2022/05/04 00:58:54;;;;;;;10.55;5.13;;;;;;;10.42;48.70;102136.88;5170820;28;20419;-45
2022/05/04 01:01:29;;;;;;;10.73;4.97;;;;;;;10.33;48.65;102125.22;5173974;28;20438;-46
2022/05/04 01:04:01;;;;;;;14.48;4.60;;;;;;;10.34;48.91;102130.41;5175973;28;20506;-46
2022/05/04 01:06:35;;;;;;;11.93;5.00;;;;;;;10.31;48.97;102132.41;5162819;28;20437;-47
2022/05/04 01:09:07;;;;;;;14.25;5.28;;;;;;;10.21;49.02;102121.66;5167131;28;20411;-44
2022/05/04 01:11:40;;;;;;;13.25;5.88;;;;;;;10.23;49.17;102129.50;5171461;28;20430;-46
2022/05/04 01:14:15;;;;;;;11.25;5.10;;;;;;;10.11;49.14;102123.31;5169337;28;20471;-48
2022/05/04 01:16:49;;;;;;;16.90;5.18;;;;;;;9.52;49.21;102021.31;5168898;28;20492;-46
2022/05/04 01:19:22;;;;;;;9.50;4.28;;;;;;;10.08;49.19;102126.19;5170041;28;20419;-48
2022/05/04 01:21:55;;;;;;;9.60;5.05;;;;;;;10.02;49.36;102121.38;5111687;28;1867758;-51
2022/05/04 01:24:28;;;;;;;11.50;5.13;;;;;;;9.90;49.33;102113.41;5176740;28;20500;-47
2022/05/04 01:27:00;;;;;;;11.32;5.80;;;;;;;9.93;49.36;102112.34;5176819;28;20433;-48
2022/05/04 01:29:33;;;;;;;13.95;5.55;;;;;;;9.83;49.50;102112.19;5175308;28;20420;-46
2022/05/04 01:32:07;;;;;;;10.30;4.82;;;;;;;9.82;49.68;102110.50;5177400;28;20431;-47
2022/05/04 01:34:39;;;;;;;14.45;5.65;;;;;;;9.78;49.59;102118.75;5169134;28;20458;-49
2022/05/04 01:37:13;;;;;;;11.07;5.43;;;;;;;9.72;49.63;102111.28;5173472;28;20494;-48
2022/05/04 01:39:46;;;;;;;14.20;5.70;;;;;;;9.67;49.62;102122.19;5174090;28;20445;-47
2022/05/04 01:42:23;;;;;;;14.57;6.40;;;;;;;9.60;49.68;102108.63;5176900;28;20423;-47
2022/05/04 01:44:56;;;;;;;16.45;7.03;;;;;;;9.55;50.11;102112.53;5178223;28;20937;-45
2022/05/04 01:47:31;;;;;;;12.63;5.93;;;;;;;9.45;49.95;102096.56;5174580;28;20436;-46
2022/05/04 01:50:04;;;;;;;12.73;5.75;;;;;;;9.42;50.06;102102.06;5178892;28;20437;-45
2022/05/04 01:52:38;;;;;;;18.52;6.47;;;;;;;9.35;50.17;102100.78;5171025;28;20857;-45
2022/05/04 01:55:10;;;;;;;11.13;6.25;;;;;;;9.30;50.26;102106.41;5170597;28;20433;-47
2022/05/04 01:57:43;;;;;;;10.68;5.95;;;;;;;9.08;50.41;102078.09;5160379;28;20407;-47
2022/05/04 02:00:16;;;;;;;12.13;7.03;;;;;;;9.17;50.29;102103.81;5165044;28;20530;-48
2022/05/04 02:02:49;;;;;;;12.63;6.38;;;;;;;9.12;50.58;102100.66;5174853;28;20438;-46
2022/05/04 02:05:22;;;;;;;10.00;5.17;;;;;;;8.38;50.75;101988.25;5172228;28;20428;-45
2022/05/04 02:07:55;;;;;;;12.13;5.82;;;;;;;8.99;50.76;102094.56;5175155;28;20435;-46
2022/05/04 02:10:28;;;;;;;12.10;6.32;;;;;;;8.92;51.00;102088.03;5167494;28;20426;-48
2022/05/04 02:13:01;;;;;;;13.60;6.63;;;;;;;8.84;51.04;102085.13;5176354;28;20537;-45
2022/05/04 02:15:33;;;;;;;11.57;6.32;;;;;;;8.79;50.96;102095.97;5150393;28;20429;-46
2022/05/04 02:18:06;;;;;;;13.60;7.20;;;;;;;8.69;51.21;102082.59;5155206;28;20415;-49
2022/05/04 02:20:38;;;;;;;14.75;7.15;;;;;;;8.62;51.32;102083.97;5166827;28;20428;-47
2022/05/04 02:23:12;;;;;;;11.97;7.17;;;;;;;8.63;51.42;102090.09;5175252;28;20457;-48
2022/05/04 02:25:45;;;;;;;13.15;6.43;;;;;;;8.61;51.55;102099.88;5166361;28;20432;-48
2022/05/04 02:28:18;;;;;;;12.68;6.35;;;;;;;8.21;51.71;102036.78;5171348;28;20788;-45
2022/05/04 02:30:50;;;;;;;12.32;7.85;;;;;;;8.34;51.37;102074.47;5173812;28;20452;-49
2022/05/04 02:33:23;;;;;;;15.95;6.93;;;;;;;8.46;51.59;102086.00;5173230;28;20435;-47
2022/05/04 02:38:46;;;;;;;12.73;6.47;;;;;;;8.25;52.13;102073.31;5172682;28;20419;-47
2022/05/04 02:41:19;;;;;;;19.10;7.38;;;;;;;8.29;52.30;102085.31;5177536;28;20899;-49
2022/05/04 02:43:51;;;;;;;14.32;6.65;;;;;;;8.25;52.21;102080.38;5171921;28;20448;-51
2022/05/04 02:46:24;;;;;;;13.35;7.20;;;;;;;7.99;52.21;102047.91;5174219;28;20417;-50
2022/05/04 02:48:59;;;;;;;13.40;7.30;;;;;;;8.18;52.49;102081.75;5174824;28;20421;-46
2022/05/04 02:51:32;;;;;;;16.73;7.95;;;;;;;8.13;52.28;102084.66;5174931;28;20409;-51
2022/05/04 02:54:06;;;;;;;18.42;8.13;;;;;;;8.08;52.66;102081.50;5175009;28;22299;-49
2022/05/04 02:56:38;;;;;;;31.38;7.95;;;;;;;8.00;52.55;102065.41;5173418;28;20405;-50
2022/05/04 02:59:11;;;;;;;15.02;7.15;;;;;;;7.88;52.72;102053.06;5176168;28;20432;-50
2022/05/04 03:04:38;;;;;;;19.85;7.93;;;;;;;7.96;52.96;102077.03;5174140;28;20412;-49
2022/05/04 03:07:10;;;;;;;15.45;8.20;;;;;;;7.41;53.03;101996.59;5173956;28;20431;-47
2022/05/04 03:09:44;;;;;;;18.10;7.93;;;;;;;7.91;52.89;102074.75;5173261;28;20500;-46
2022/05/04 03:12:17;;;;;;;15.10;8.90;;;;;;;7.84;53.20;102063.78;5168038;28;20415;-50
2022/05/04 03:14:49;;;;;;;13.93;8.70;;;;;;;7.81;53.12;102066.63;5176260;28;20529;-46
2022/05/04 03:17:22;;;;;;;19.50;9.02;;;;;;;7.79;53.19;102065.88;5172457;28;20810;-49
2022/05/04 03:19:55;;;;;;;15.02;7.95;;;;;;;7.75;53.39;102080.19;5175699;28;20426;-45
2022/05/04 03:22:29;;;;;;;18.05;8.13;;;;;;;7.57;53.57;102049.81;5170323;28;20416;-47
2022/05/04 03:25:08;;;;;;;17.23;9.35;;;;;;;7.60;53.68;102054.88;5177067;28;21055;-46
2022/05/04 03:27:40;;;;;;;17.95;8.75;;;;;;;7.61;53.72;102057.41;5146382;28;20421;-51
2022/05/04 03:30:14;;;;;;;17.77;8.68;;;;;;;7.59;53.95;102064.56;5173312;28;21132;-47
2022/05/04 03:32:46;;;;;;;17.45;9.80;;;;;;;7.58;53.96;102064.66;5170695;28;20434;-48
2022/05/04 03:35:19;;;;;;;17.67;8.18;;;;;;;7.52;54.06;102051.91;5173745;28;20761;-47
2022/05/04 03:37:51;;;;;;;20.33;9.30;;;;;;;7.43;53.86;102055.13;5173056;28;20411;-46
2022/05/04 03:40:25;;;;;;;13.40;8.77;;;;;;;7.48;53.99;102055.69;5172414;28;20419;-47
2022/05/04 03:42:57;;;;;;;19.63;9.50;;;;;;;7.46;54.23;102057.56;5175395;28;20782;-50
2022/05/04 03:45:30;;;;;;;15.47;9.10;;;;;;;7.37;54.11;102051.09;5169784;28;20602;-50
2022/05/04 03:48:02;;;;;;;18.00;9.40;;;;;;;7.23;54.39;102031.00;5172699;28;20430;-47
2022/05/04 03:50:34;;;;;;;14.25;8.60;;;;;;;7.31;54.43;102036.59;5162403;28;20415;-46
2022/05/04 03:53:07;;;;;;;14.15;8.55;;;;;;;7.33;54.50;102053.09;5175079;28;20505;-47
2022/05/04 03:55:41;;;;;;;12.87;8.10;;;;;;;7.30;54.66;102058.56;5160706;28;20482;-46
2022/05/04 03:58:13;;;;;;;14.30;8.95;;;;;;;7.27;54.68;102056.13;5171823;28;20423;-45
2022/05/04 04:00:46;;;;;;;17.23;8.80;;;;;;;7.24;54.60;102047.59;5166080;28;20493;-46
2022/05/04 04:03:18;;;;;;;14.57;9.70;;;;;;;7.22;54.89;102055.59;5172387;28;20428;-50
2022/05/04 04:05:51;;;;;;;20.67;9.93;;;;;;;7.12;54.73;102043.97;5174594;28;20900;-45
2022/05/04 04:08:23;;;;;;;19.15;9.85;;;;;;;7.15;54.91;102049.03;5175114;28;20452;-45
2022/05/04 04:10:58;;;;;;;16.25;9.65;;;;;;;7.14;55.05;102050.81;5175645;28;20427;-45
2022/05/04 04:13:31;;;;;;;18.17;11.47;;;;;;;7.14;55.04;102068.34;5172183;28;20607;-48
2022/05/04 04:16:04;;;;;;;18.48;10.70;;;;;;;7.16;54.88;102058.59;5158465;28;20549;-47
2022/05/04 04:18:36;;;;;;;21.55;10.10;;;;;;;7.15;55.01;102060.41;5169761;28;20457;-47
2022/05/04 04:24:01;;;;;;;21.92;11.65;;;;;;;7.05;55.36;102040.03;5172474;28;20526;-49
2022/05/04 04:26:37;;;;;;;21.23;10.32;;;;;;;7.09;55.18;102059.91;5172726;28;20837;-47
2022/05/04 04:29:11;;;;;;;22.48;9.93;;;;;;;7.13;55.27;102056.19;5171135;28;20416;-48
2022/05/04 04:31:43;;;;;;;20.95;10.18;;;;;;;7.15;55.50;102064.78;5168187;28;20443;-48
2022/05/04 04:34:17;;;;;;;18.17;9.93;;;;;;;7.16;55.30;102063.88;5176310;28;20403;-46
2022/05/04 04:36:49;;;;;;;20.77;11.32;;;;;;;7.14;55.59;102061.31;5184795;28;20424;-45
2022/05/04 04:39:21;;;;;;;19.17;10.00;;;;;;;7.17;55.72;102065.53;5170519;28;20503;-46
2022/05/04 04:41:55;;;;;;;25.10;10.02;;;;;;;7.14;55.63;102061.31;5178082;28;20441;-45
2022/05/04 04:44:28;;;;;;;16.98;9.85;;;;;;;7.23;55.74;102073.03;5181858;28;20801;-46
2022/05/04 04:47:00;;;;;;;17.63;9.20;;;;;;;7.24;55.50;102074.72;5169909;28;20408;-46
2022/05/04 04:49:33;;;;;;;20.30;10.52;;;;;;;7.18;55.71;102054.06;5184400;28;20856;-46
2022/05/04 04:52:06;;;;;;;20.02;9.45;;;;;;;7.29;55.77;102077.91;5182845;28;20417;-46
2022/05/04 04:54:38;;;;;;;21.80;10.77;;;;;;;7.18;55.93;102054.06;5179179;28;20737;-46
2022/05/04 04:57:12;;;;;;;17.42;9.65;;;;;;;7.34;55.85;102064.44;5176701;28;20773;-48
2022/05/04 04:59:44;;;;;;;21.30;10.23;;;;;;;7.44;55.84;102070.81;5185667;28;20837;-46
2022/05/04 05:02:17;;;;;;;22.75;10.30;;;;;;;7.49;55.72;102063.47;5185237;28;20421;-47
2022/05/04 05:04:49;;;;;;;16.67;9.77;;;;;;;7.55;55.90;102070.09;5187484;28;20965;-45
2022/05/04 05:07:22;;;;;;;22.60;9.70;;;;;;;7.59;55.99;102067.19;5178950;28;20422;-47
2022/05/04 05:09:54;;;;;;;21.73;9.65;;;;;;;7.51;55.95;102039.72;5181063;28;20421;-47
2022/05/04 05:12:28;;;;;;;19.70;9.70;;;;;;;7.70;56.01;102061.22;5167566;28;20431;-46
2022/05/04 05:17:53;;;;;;;19.25;10.57;;;;;;;7.91;56.05;102074.75;5150611;28;20418;-47
2022/05/04 05:20:25;;;;;;;18.13;9.95;;;;;;;8.00;56.01;102070.66;5184109;28;20421;-47
2022/05/04 05:22:58;;;;;;;20.03;9.37;;;;;;;8.09;55.92;102073.50;5181457;28;20483;-46
2022/05/04 05:25:32;;;;;;;18.02;10.40;;;;;;;8.18;55.93;102061.53;5180271;28;20514;-47
2022/05/04 05:28:06;;;;;;;21.13;9.40;;;;;;;8.32;55.77;102066.66;5154667;28;21396;-45
2022/05/04 05:30:39;;;;;;;18.10;8.65;;;;;;;8.45;55.84;102069.34;5179171;28;20561;-45
2022/05/04 05:33:11;;;;;;;18.20;7.38;;;;;;;8.59;55.87;102071.03;5167021;28;20411;-45
2022/05/04 05:35:44;;;;;;;17.83;8.20;;;;;;;8.67;55.68;102055.53;5168893;28;20432;-46
2022/05/04 05:38:16;;;;;;;16.33;7.23;;;;;;;8.90;55.73;102061.81;5167551;28;20415;-45
2022/05/04 05:40:49;;;;;;;23.58;8.07;;;;;;;9.68;55.15;102050.84;5157063;28;20965;-48
2022/05/04 05:43:22;;;;;;;16.23;6.82;;;;;;;11.07;53.99;102052.44;5172148;28;20421;-49
2022/05/04 05:45:55;;;;;;;12.32;5.70;;;;;;;12.48;52.84;102039.03;5174009;28;21132;-47
2022/05/04 05:48:27;;;;;;;11.53;4.43;;;;;;;14.02;51.54;102053.50;5180858;28;20986;-51
2022/05/04 05:51:05;;;;;;;11.65;4.93;;;;;;;15.85;49.63;102052.69;5190499;28;20495;-48
2022/05/04 05:53:37;;;;;;;15.15;4.65;;;;;;;17.58;47.96;102049.75;5179082;28;20439;-51
2022/05/04 05:56:10;;;;;;;10.60;3.92;;;;;;;18.78;46.56;102048.09;5184353;28;20492;-52
2022/05/04 05:58:44;;;;;;;9.40;3.40;;;;;;;19.94;45.18;102060.53;5161460;28;20856;-51
2022/05/04 06:01:16;;;;;;;12.18;3.65;;;;;;;21.20;43.52;102062.25;5170750;28;20454;-54
2022/05/04 06:03:50;;;;;;;8.43;3.37;;;;;;;22.41;42.14;102056.88;5183534;28;20584;-54
2022/05/04 06:06:22;;;;;;;10.45;3.28;;;;;;;23.32;40.85;102062.00;5188104;28;21107;-56
2022/05/04 06:08:55;;;;;;;11.77;3.50;;;;;;;23.65;40.11;102059.34;5184593;28;20909;-54
2022/05/04 06:11:27;;;;;;;11.35;3.38;;;;;;;24.05;39.36;102059.38;5188133;28;20777;-50
2022/05/04 06:14:01;;;;;;;11.68;3.63;;;;;;;24.58;38.52;102057.38;5184956;28;20418;-56
2022/05/04 06:16:33;;;;;;;10.32;3.72;;;;;;;25.09;37.59;102061.13;5178317;28;20900;-52
2022/05/04 06:19:06;;;;;;;13.07;3.53;;;;;;;25.65;36.73;102056.81;5185393;28;20412;-54
2022/05/04 06:21:38;;;;;;;11.50;3.20;;;;;;;26.42;35.75;102057.34;5185615;28;20909;-56
2022/05/04 06:24:10;;;;;;;11.75;3.28;;;;;;;27.17;34.67;102056.22;5183436;28;20538;-56
2022/05/04 06:26:43;;;;;;;12.00;2.80;;;;;;;27.73;34.14;102052.19;5182013;28;20538;-55
2022/05/04 06:29:17;;;;;;;7.68;2.72;;;;;;;28.15;33.14;102060.22;5180745;28;20410;-52
2022/05/04 06:34:39;;;;;;;8.35;2.00;;;;;;;29.04;32.16;102044.44;5184053;28;20421;-55
2022/05/04 06:37:12;;;;;;;10.27;2.75;;;;;;;29.09;31.43;102001.00;5170581;28;20482;-57
2022/05/04 06:39:45;;;;;;;9.65;2.75;;;;;;;29.76;30.74;102060.09;5183646;28;20500;-58
2022/05/04 06:42:18;;;;;;;6.80;2.15;;;;;;;30.04;30.10;102061.88;5179454;28;20601;-58
2022/05/04 06:44:52;;;;;;;10.32;2.88;;;;;;;30.23;29.97;102053.44;5174103;28;20438;-57
2022/05/04 06:47:24;;;;;;;12.40;2.45;;;;;;;30.43;29.57;102058.31;5184953;28;20431;-59
2022/05/04 06:49:57;;;;;;;8.05;2.47;;;;;;;30.65;29.16;102061.84;5184199;28;20498;-58
2022/05/04 06:52:30;;;;;;;9.75;2.47;;;;;;;30.95;28.53;102066.03;5177169;28;20434;-58
2022/05/04 06:55:02;;;;;;;11.43;2.75;;;;;;;31.21;28.29;102067.91;5177595;28;20438;-57
2022/05/04 06:57:35;;;;;;;9.07;2.27;;;;;;;31.24;27.73;102048.28;5173347;28;30539;-57
2022/05/04 07:00:11;;;;;;;10.52;2.40;;;;;;;31.42;27.72;102065.41;5161656;28;20452;-57
2022/05/04 07:02:43;;;;;;;7.85;2.28;;;;;;;31.37;27.32;102068.09;5180015;28;20518;-59
2022/05/04 07:05:16;;;;;;;13.82;3.00;;;;;;;31.37;27.21;102068.09;5179773;28;20419;-56
2022/05/04 07:07:48;;;;;;;9.95;3.25;;;;;;;31.26;26.79;102067.16;5180860;28;20464;-55
2022/05/04 07:10:21;;;;;;;11.60;2.80;;;;;;;31.45;26.63;102070.34;5183290;28;20437;-57
2022/05/04 07:12:54;;;;;;;10.70;3.30;;;;;;;31.47;26.64;102070.94;5185149;28;20433;-58
2022/05/04 07:15:27;;;;;;;11.38;3.22;;;;;;;31.28;26.57;102047.78;5183492;28;20419;-57
2022/05/04 07:18:00;;;;;;;10.10;3.58;;;;;;;31.29;26.57;102065.81;5176886;28;20903;-58
2022/05/04 07:20:32;;;;;;;11.05;3.30;;;;;;;31.34;26.50;102066.72;5182219;28;20591;-57
2022/05/04 07:23:05;;;;;;;10.30;2.80;;;;;;;31.22;26.07;102038.75;5178035;28;20585;-58
2022/05/04 07:25:37;;;;;;;12.80;3.20;;;;;;;31.27;26.30;102063.34;5182144;28;20493;-56
2022/05/04 07:28:10;;;;;;;11.50;3.72;;;;;;;31.17;26.69;102064.06;5182392;28;20547;-57
2022/05/04 07:30:44;;;;;;;7.90;3.17;;;;;;;30.83;26.41;102068.09;5183270;28;20407;-58
2022/05/04 07:33:16;;;;;;;12.30;3.50;;;;;;;29.73;26.86;102071.50;5181203;28;20798;-58
2022/05/04 07:35:49;;;;;;;11.40;3.50;;;;;;;28.92;27.18;102059.94;5182630;28;20498;-61
2022/05/04 07:38:21;;;;;;;8.15;3.38;;;;;;;29.00;27.29;102062.28;5185401;28;20438;-58
2022/05/04 07:43:44;;;;;;;10.63;3.25;;;;;;;29.48;26.84;102062.88;5183630;28;20402;-58
2022/05/04 07:46:18;;;;;;;8.07;3.20;;;;;;;29.77;26.68;102063.66;5181690;28;20431;-59
2022/05/04 07:48:51;;;;;;;15.93;3.00;;;;;;;29.98;26.26;102067.47;5186131;28;20449;-58
2022/05/04 07:51:23;;;;;;;7.45;2.67;;;;;;;30.04;26.42;102072.78;5188080;28;20403;-60
2022/05/04 07:53:55;;;;;;;9.97;2.87;;;;;;;30.12;26.33;102070.69;5188724;28;20415;-56
2022/05/04 07:56:28;;;;;;;10.70;3.10;;;;;;;30.08;26.29;102062.19;5181350;28;20438;-59
2022/05/04 07:59:00;;;;;;;7.40;2.58;;;;;;;29.81;26.45;102062.88;5188649;28;20498;-60
2022/05/04 08:04:24;;;;;;;9.63;2.53;;;;;;;29.59;26.88;102072.84;5178998;28;20415;-58
2022/05/04 08:06:56;;;;;;;9.00;2.88;;;;;;;29.44;27.20;102064.44;5186857;28;20419;-57
2022/05/04 08:09:34;;;;;;;9.05;3.33;;;;;;;29.31;27.18;102047.34;5185346;28;20426;-57
2022/05/04 08:12:08;;;;;;;8.93;2.78;;;;;;;29.14;27.35;102041.06;5157019;28;20415;-57
2022/05/04 08:14:41;;;;;;;8.60;2.13;;;;;;;28.46;27.71;102029.97;5157325;28;20420;-57
2022/05/04 08:17:14;;;;;;;8.02;2.80;;;;;;;28.53;28.01;102056.19;5175515;28;20429;-58
2022/05/04 08:19:47;;;;;;;11.48;2.90;;;;;;;28.40;28.11;102069.00;5167400;28;20421;-57
2022/05/04 08:22:19;;;;;;;7.40;2.42;;;;;;;27.99;28.24;102068.03;5167759;28;20422;-57
2022/05/04 08:24:52;;;;;;;10.15;2.63;;;;;;;27.57;28.41;102032.81;5164966;28;20429;-57
2022/05/04 08:27:24;;;;;;;10.03;2.53;;;;;;;27.68;28.54;102073.78;5180035;28;20426;-57
2022/05/04 08:29:56;;;;;;;10.15;2.83;;;;;;;27.47;28.56;102076.00;5172696;28;20498;-59
2022/05/04 08:32:52;;;;;;;12.33;4.70;;;;;;;27.30;28.68;102069.56;5171069;28;20598;-57
2022/05/04 08:35:24;;;;;;;9.48;2.50;;;;;;;27.07;28.78;102062.16;5167499;28;20498;-57
2022/05/04 08:37:57;;;;;;;11.23;2.72;;;;;;;26.91;28.89;102063.63;5170754;28;20423;-58
2022/05/04 08:40:30;;;;;;;7.15;2.28;;;;;;;26.80;28.92;102073.38;5172877;28;20440;-57
2022/05/04 08:43:05;;;;;;;8.15;2.30;;;;;;;26.38;28.88;102018.19;5168259;28;20421;-56
2022/05/04 08:45:40;;;;;;;9.00;3.10;;;;;;;26.43;29.06;102069.81;5170327;28;20436;-58
2022/05/04 08:48:14;;;;;;;10.75;2.67;;;;;;;26.03;29.09;102048.56;5173997;28;20760;-57
2022/05/04 08:50:47;;;;;;;7.05;3.17;;;;;;;25.93;29.34;102064.50;5177483;28;20401;-55
2022/05/04 08:53:19;;;;;;;7.40;2.50;;;;;;;25.35;29.64;102034.97;5176192;28;21030;-56
2022/05/04 08:55:52;;;;;;;10.15;3.60;;;;;;;25.21;29.41;102072.94;5171546;28;20427;-55
2022/05/04 08:58:24;;;;;;;10.87;2.60;;;;;;;24.90;29.89;102056.63;5171990;28;20453;-56
2022/05/04 09:00:57;;;;;;;8.93;2.78;;;;;;;24.42;29.97;102068.66;5171745;28;20408;-56
2022/05/04 09:03:32;;;;;;;9.00;3.00;;;;;;;24.10;30.15;102060.41;5169301;28;20517;-55
2022/05/04 09:06:05;;;;;;;9.68;3.38;;;;;;;23.82;30.27;102051.72;5176186;28;20510;-55
2022/05/04 09:08:57;;;;;;;7.17;2.90;;;;;;;23.91;30.04;102066.66;5169155;28;20431;-55
2022/05/04 09:11:32;;;;;;;8.52;2.67;;;;;;;23.93;29.83;102064.56;5165449;28;20529;-54
2022/05/04 09:14:10;;;;;;;12.73;3.30;;;;;;;23.72;29.88;102035.94;5168822;28;20431;-53
2022/05/04 09:16:42;;;;;;;9.13;2.83;;;;;;;23.66;29.85;102059.16;5165393;28;20435;-56
2022/05/04 09:19:18;;;;;;;9.27;3.00;;;;;;;23.53;29.84;102055.59;5170536;28;20427;-55
2022/05/04 09:21:52;;;;;;;12.50;2.95;;;;;;;23.49;29.82;102049.81;5166393;28;20425;-55
2022/05/04 09:24:29;;;;;;;8.50;2.63;;;;;;;23.41;29.59;102053.53;5184323;28;20516;-53
2022/05/04 09:27:05;;;;;;;10.23;3.00;;;;;;;23.33;29.58;102053.72;5178865;28;20494;-54
2022/05/04 09:29:42;;;;;;;9.75;3.55;;;;;;;23.31;29.66;102055.78;5172099;28;20480;-54
2022/05/04 09:32:15;;;;;;;21.88;4.68;;;;;;;23.20;29.54;102056.41;5173083;28;20415;-54
2022/05/04 09:34:49;;;;;;;9.70;3.13;;;;;;;23.24;29.33;102063.88;5170317;28;20894;-53
2022/05/04 09:45:55;;;;;;;10.57;3.57;;;;;;;22.09;29.84;102046.50;5165944;28;20846;-52
2022/05/04 09:48:31;;;;;;;10.65;3.63;;;;;;;21.30;30.41;102033.19;5170103;28;20419;-54
2022/05/04 09:51:06;;;;;;;10.88;3.92;;;;;;;21.07;30.77;102044.13;5163408;28;20502;-52
2022/05/04 09:53:42;;;;;;;10.70;3.72;;;;;;;21.12;30.11;102036.34;5168275;28;20885;-51
2022/05/04 09:56:15;;;;;;;9.48;3.85;;;;;;;21.24;30.31;102030.44;5165868;28;20879;-54
2022/05/04 09:58:47;;;;;;;15.32;4.65;;;;;;;21.35;30.07;102033.50;5167576;28;20499;-55
2022/05/04 10:01:20;;;;;;;14.30;4.53;;;;;;;21.10;30.21;102019.56;5171612;28;20845;-50
2022/05/04 10:03:52;;;;;;;11.53;4.40;;;;;;;20.86;30.45;102027.97;5168581;28;20424;-53
2022/05/04 10:06:26;;;;;;;7.72;3.92;;;;;;;20.84;30.30;102035.38;5156250;28;20620;-54
2022/05/04 10:08:59;;;;;;;16.95;4.70;;;;;;;20.94;30.37;102031.41;5164759;28;20458;-52
2022/05/04 10:11:33;;;;;;;10.95;4.38;;;;;;;20.92;30.22;102016.47;5177487;28;20456;-52
2022/05/04 10:14:10;;;;;;;15.18;5.18;;;;;;;20.86;30.25;102023.44;5185822;28;20526;-55
2022/05/04 10:16:47;;;;;;;12.93;5.13;;;;;;;20.68;30.69;102026.53;5178969;28;20452;-56
2022/05/04 10:19:27;;;;;;;15.82;4.78;;;;;;;20.09;30.84;101999.69;5184421;28;20549;-57
2022/05/04 10:22:03;;;;;;;11.85;4.72;;;;;;;19.99;30.72;101999.97;5184282;28;20445;-58
2022/05/04 10:24:36;;;;;;;16.02;5.00;;;;;;;19.90;30.90;101985.00;5162816;28;20773;-58
2022/05/04 10:27:18;;;;;;;12.25;4.45;;;;;;;20.22;31.06;102023.19;5161998;28;20443;-50
2022/05/04 10:32:51;;;;;;;9.70;4.10;;;;;;;20.27;30.95;101999.34;5181397;28;20510;-52
2022/05/04 10:35:34;;;;;;;12.02;4.40;;;;;;;20.62;30.98;102018.38;5183581;28;20415;-53
